Gaiman, Argentina
Current Conditions -  °F | °C
As of 6:00 AM on Monday 24 Nov 2014 (Local Time) from SAVC Reporting Station
Clear Clear  
Wind Chill: 52°   Ceiling: Unl
Heat Index: 52°   Visibility: 6mi
Dew Point: 36°   Wind: 10mph
Humidity: 54%   Direction: 270°W
Pressure: 29.71"   Gusts: NA
Location:  43.28°S, 65.48°W
Report Text: SAVC 240900Z 27009KT CAVOK 11/02 Q1006
Loading
Personal Weather Stations






























Interactive Weather Map New forecast layout! Learn more

10-Day Weather Forecast

Advertisements
Track Severe Weather on mobile